Time;durP1;ratioP1;P1;durP2;ratioP2;P2;SDS_P1;SDS_P2;PMS_P1;PMS_P2;Temp;Humidity;BMP_temperature;BMP_pressure;BME280_temperature;BME280_humidity;BME280_pressure;Samples;Min_cycle;Max_cycle;Signal;HPM_P1;HPM_P2
2023/02/10 00:00:55;;;;;;;10.40;5.20;;;;;;;-1.23;100.00;103678.44;5110521;28;20034;-80
2023/02/10 00:03:20;;;;;;;12.23;5.18;;;;;;;-1.21;100.00;103675.81;5110207;28;20024;-80
2023/02/10 00:05:45;;;;;;;16.38;5.28;;;;;;;-1.20;100.00;103664.53;5110193;28;20421;-80
2023/02/10 00:08:11;;;;;;;15.07;4.75;;;;;;;-1.20;100.00;103665.38;5110605;28;20023;-81
2023/02/10 00:10:37;;;;;;;10.38;5.10;;;;;;;-1.18;100.00;103666.28;5108687;28;20172;-79
2023/02/10 00:13:02;;;;;;;9.45;4.63;;;;;;;-1.15;100.00;103660.16;5109051;28;20423;-80
2023/02/10 00:15:28;;;;;;;25.52;4.85;;;;;;;-1.12;100.00;103668.03;5109027;28;20089;-80
2023/02/10 00:17:53;;;;;;;14.30;4.63;;;;;;;-1.08;100.00;103661.94;5110689;28;20035;-80
2023/02/10 00:20:19;;;;;;;9.23;4.43;;;;;;;-1.04;100.00;103653.25;5110388;28;20148;-79
2023/02/10 00:22:44;;;;;;;17.08;4.97;;;;;;;-0.98;100.00;103649.78;5110069;28;20182;-80
2023/02/10 00:25:09;;;;;;;13.25;4.75;;;;;;;-0.94;100.00;103641.06;5109524;28;20070;-78
2023/02/10 00:27:35;;;;;;;12.60;4.60;;;;;;;-0.92;100.00;103648.06;5109815;28;20076;-80
2023/02/10 00:30:00;;;;;;;18.88;4.72;;;;;;;-0.94;100.00;103646.28;5109704;28;20119;-79
2023/02/10 00:32:26;;;;;;;20.15;5.75;;;;;;;-0.94;100.00;103652.41;5108150;28;20028;-78
2023/02/10 00:34:51;;;;;;;22.50;5.80;;;;;;;-0.93;100.00;103643.69;5110119;28;20440;-79
2023/02/10 00:37:16;;;;;;;13.90;4.72;;;;;;;-0.93;100.00;103648.06;5110246;28;20024;-79
2023/02/10 00:39:42;;;;;;;14.02;4.30;;;;;;;-0.95;100.00;103644.56;5109804;28;20047;-79
2023/02/10 00:42:07;;;;;;;12.82;4.80;;;;;;;-1.00;100.00;103644.56;5110080;28;20027;-79
2023/02/10 00:44:32;;;;;;;11.77;4.63;;;;;;;-1.07;100.00;103643.66;5108538;28;20339;-78
2023/02/10 00:46:58;;;;;;;12.32;4.55;;;;;;;-1.14;100.00;103643.63;5110472;28;20486;-79
2023/02/10 00:49:23;;;;;;;20.65;4.45;;;;;;;-1.23;100.00;103643.59;5110141;28;20035;-77
2023/02/10 00:51:49;;;;;;;18.48;5.18;;;;;;;-1.32;100.00;103645.28;5108398;28;20127;-78
2023/02/10 00:54:14;;;;;;;19.50;5.47;;;;;;;-1.33;100.00;103659.25;5110038;28;20122;-78
2023/02/10 00:56:40;;;;;;;16.63;5.50;;;;;;;-1.35;100.00;103654.88;5110267;28;20140;-78
2023/02/10 00:59:05;;;;;;;14.32;5.68;;;;;;;-1.37;100.00;103653.97;5109875;28;20383;-78
2023/02/10 01:01:31;;;;;;;22.27;5.53;;;;;;;-1.42;100.00;103644.41;5109356;28;20493;-79
2023/02/10 01:03:57;;;;;;;9.35;5.40;;;;;;;-1.47;100.00;103651.31;5109631;28;20499;-79
2023/02/10 01:06:23;;;;;;;13.45;5.90;;;;;;;-1.50;100.00;103655.66;5109430;28;20152;-85
2023/02/10 01:08:48;;;;;;;14.80;5.43;;;;;;;-1.57;100.00;103665.19;5108926;28;20036;-77
2023/02/10 01:11:14;;;;;;;16.67;6.10;;;;;;;-1.65;100.00;103657.31;5109798;28;20425;-78
2023/02/10 01:13:41;;;;;;;17.15;6.30;;;;;;;-1.70;100.00;103665.97;5110904;28;20509;-79
2023/02/10 01:16:10;;;;;;;16.55;6.35;;;;;;;-1.71;100.00;103665.13;5113565;28;20024;-78
2023/02/10 01:18:36;;;;;;;12.25;6.45;;;;;;;-1.66;100.00;103665.16;5112955;28;20027;-78
2023/02/10 01:21:10;;;;;;;21.13;6.93;;;;;;;-1.64;100.00;103655.59;5113435;28;20413;-79
2023/02/10 01:23:35;;;;;;;15.27;7.00;;;;;;;-1.67;100.00;103664.28;5113596;28;20031;-79
2023/02/10 01:26:01;;;;;;;20.98;7.10;;;;;;;-1.69;100.00;103657.31;5113342;28;20107;-80
2023/02/10 01:28:26;;;;;;;22.58;7.97;;;;;;;-1.69;100.00;103668.59;5113155;28;20377;-81
2023/02/10 01:30:52;;;;;;;17.88;8.23;;;;;;;-1.68;100.00;103672.97;5113900;28;20031;-79
2023/02/10 01:33:17;;;;;;;19.10;8.35;;;;;;;-1.65;100.00;103666.91;5113131;28;20043;-79
2023/02/10 01:35:42;;;;;;;14.35;6.95;;;;;;;-1.65;100.00;103667.75;5111288;28;20412;-79
2023/02/10 01:38:08;;;;;;;15.63;7.70;;;;;;;-1.69;100.00;103671.22;5112695;28;20032;-79
2023/02/10 01:40:34;;;;;;;18.05;8.27;;;;;;;-1.78;100.00;103672.06;5112388;28;20046;-79
2023/02/10 01:42:59;;;;;;;13.30;7.10;;;;;;;-1.82;100.00;103672.88;5112442;28;20367;-79
2023/02/10 01:45:31;;;;;;;13.40;7.13;;;;;;;-1.85;100.00;103685.94;5112400;28;20039;-79
2023/02/10 01:47:57;;;;;;;20.58;7.63;;;;;;;-1.89;100.00;103691.13;5112950;28;20038;-79
2023/02/10 01:50:28;;;;;;;15.40;7.95;;;;;;;-1.96;100.00;103691.06;5112659;28;20027;-79
2023/02/10 01:52:55;;;;;;;22.52;9.45;;;;;;;-2.00;100.00;103696.22;5111159;28;20100;-80
2023/02/10 01:55:29;;;;;;;18.58;9.40;;;;;;;-2.01;100.00;103697.13;5113310;28;20114;-79
2023/02/10 01:57:55;;;;;;;16.50;9.10;;;;;;;-2.01;100.00;103697.13;5112945;28;20030;-79
2023/02/10 02:00:23;;;;;;;21.25;9.77;;;;;;;-2.00;100.00;103691.00;5112263;28;20054;-78
2023/02/10 02:02:49;;;;;;;21.48;9.32;;;;;;;-2.01;100.00;103678.84;5112071;28;20057;-80
2023/02/10 02:05:31;;;;;;;23.75;10.27;;;;;;;-1.97;100.00;103676.25;5112062;28;20023;-79
2023/02/10 02:08:01;;;;;;;22.67;9.93;;;;;;;-1.90;100.00;103681.53;5112800;28;20163;-79
2023/02/10 02:10:40;;;;;;;20.40;10.40;;;;;;;-1.89;100.00;103678.06;5111471;28;20067;-79
2023/02/10 02:13:16;;;;;;;31.20;12.13;;;;;;;-1.90;100.00;103674.56;5111247;28;20035;-78
2023/02/10 02:16:01;;;;;;;25.27;11.50;;;;;;;-1.90;100.00;103671.09;5113176;28;20027;-79
2023/02/10 02:18:40;;;;;;;30.65;11.57;;;;;;;-1.90;100.00;103673.69;5114138;28;20024;-79
2023/02/10 02:21:39;;;;;;;24.25;10.95;;;;;;;-1.90;100.00;103673.69;5114959;28;20100;-73
2023/02/10 02:24:24;;;;;;;30.23;11.50;;;;;;;-1.84;100.00;103668.50;5115913;28;20027;-74
2023/02/10 02:27:08;;;;;;;21.30;11.00;;;;;;;-1.84;100.00;103677.22;5115629;28;20032;-74
2023/02/10 02:29:46;;;;;;;23.23;12.00;;;;;;;-1.89;100.00;103678.06;5115440;28;20035;-73
2023/02/10 02:32:21;;;;;;;21.23;11.90;;;;;;;-1.97;100.00;103676.25;5115553;28;20039;-73
2023/02/10 02:35:08;;;;;;;23.40;11.10;;;;;;;-2.04;100.00;103674.47;5115119;28;20053;-74
2023/02/10 02:37:39;;;;;;;24.40;11.93;;;;;;;-2.07;100.00;103679.66;5115317;28;20027;-73
2023/02/10 02:40:05;;;;;;;26.02;12.05;;;;;;;-2.09;100.00;103693.56;5115534;28;20038;-73
2023/02/10 02:42:32;;;;;;;33.90;12.68;;;;;;;-2.16;100.00;103697.84;5115245;28;20024;-74
2023/02/10 02:45:20;;;;;;;26.45;12.32;;;;;;;-2.24;100.00;103704.72;5114812;28;20046;-73
2023/02/10 02:48:08;;;;;;;25.33;11.85;;;;;;;-2.26;100.00;103709.94;5115036;28;20023;-73
2023/02/10 02:50:38;;;;;;;38.58;13.23;;;;;;;-2.23;100.00;103706.50;5114611;28;20089;-73
2023/02/10 02:54:00;;;;;;;36.97;12.88;;;;;;;-2.18;100.00;103708.28;5115083;28;20035;-73
2023/02/10 02:56:37;;;;;;;26.42;11.77;;;;;;;-2.11;100.00;103697.91;5032123;28;20029;-73
2023/02/10 02:59:11;;;;;;;25.95;10.90;;;;;;;-2.04;100.00;103695.34;5032304;28;20037;-73
2023/02/10 03:01:49;;;;;;;31.58;11.98;;;;;;;-1.98;100.00;103705.81;5091948;28;20063;-74
2023/02/10 03:04:16;;;;;;;24.73;11.88;;;;;;;-1.97;100.00;103706.69;5115358;28;20364;-73
2023/02/10 03:06:42;;;;;;;22.92;11.35;;;;;;;-1.97;100.00;103710.19;5114414;28;20027;-73
2023/02/10 03:09:08;;;;;;;19.73;10.77;;;;;;;-1.98;100.00;103704.97;5114620;28;20031;-73
2023/02/10 03:11:33;;;;;;;28.52;11.27;;;;;;;-1.99;100.00;103701.47;5114858;27;20055;-73
2023/02/10 03:13:58;;;;;;;25.42;11.93;;;;;;;-1.96;100.00;103700.63;5115145;28;20034;-73
2023/02/10 03:16:24;;;;;;;28.23;11.43;;;;;;;-1.93;100.00;103705.00;5114639;27;20035;-73
2023/02/10 03:18:49;;;;;;;21.17;10.20;;;;;;;-1.91;100.00;103706.75;5115063;28;20078;-73
2023/02/10 03:21:14;;;;;;;24.23;11.07;;;;;;;-1.91;100.00;103709.38;5114502;28;20080;-73
2023/02/10 03:23:40;;;;;;;21.73;10.60;;;;;;;-1.95;100.00;103705.84;5114452;28;20031;-73
2023/02/10 03:26:05;;;;;;;22.30;10.18;;;;;;;-1.98;100.00;103705.81;5114252;28;20031;-73
2023/02/10 03:28:30;;;;;;;36.08;12.27;;;;;;;-1.99;100.00;103709.28;5114377;28;20486;-73
2023/02/10 03:30:56;;;;;;;31.65;11.45;;;;;;;-1.99;100.00;103711.03;5114294;28;20498;-73
2023/02/10 03:33:22;;;;;;;30.00;11.88;;;;;;;-1.98;100.00;103712.78;5114311;28;20033;-73
2023/02/10 03:35:47;;;;;;;33.22;12.77;;;;;;;-1.96;100.00;103719.78;5114090;28;20429;-72
2023/02/10 03:38:14;;;;;;;32.72;12.00;;;;;;;-1.97;100.00;103706.69;5114204;28;20066;-73
2023/02/10 03:40:39;;;;;;;37.75;11.85;;;;;;;-1.99;100.00;103708.44;5113967;28;20035;-73
2023/02/10 03:43:05;;;;;;;24.83;11.05;;;;;;;-2.00;100.00;103704.06;5114156;28;20114;-74
2023/02/10 03:45:31;;;;;;;24.60;11.65;;;;;;;-2.00;100.00;103702.34;5114111;28;20495;-73
2023/02/10 03:47:56;;;;;;;26.20;10.85;;;;;;;-2.01;100.00;103705.81;5112836;28;20106;-73
2023/02/10 03:50:21;;;;;;;31.42;11.35;;;;;;;-2.01;100.00;103705.81;5112747;28;20035;-73
2023/02/10 03:52:47;;;;;;;34.58;13.15;;;;;;;-2.01;100.00;103707.56;5114024;28;20154;-73
2023/02/10 03:55:14;;;;;;;28.63;11.57;;;;;;;-1.99;100.00;103700.59;5114053;28;20059;-74
2023/02/10 03:57:40;;;;;;;28.75;11.95;;;;;;;-1.98;100.00;103705.81;5113971;28;20128;-73
2023/02/10 04:00:07;;;;;;;28.35;10.93;;;;;;;-2.02;100.00;103713.63;5114403;28;20031;-72
2023/02/10 04:02:33;;;;;;;29.15;11.80;;;;;;;-2.06;100.00;103707.50;5113596;28;20475;-73
2023/02/10 04:04:58;;;;;;;34.03;12.93;;;;;;;-2.07;100.00;103705.75;5113488;28;20035;-73
2023/02/10 04:07:23;;;;;;;32.85;12.85;;;;;;;-2.05;100.00;103714.47;5114124;28;20111;-73
2023/02/10 04:09:49;;;;;;;33.53;12.82;;;;;;;-2.02;100.00;103713.63;5113583;28;20059;-72
2023/02/10 04:12:14;;;;;;;23.60;11.07;;;;;;;-2.04;100.00;103718.81;5114491;28;20055;-73
2023/02/10 04:14:39;;;;;;;23.42;11.02;;;;;;;-2.03;100.00;103711.84;5112923;28;20063;-73
2023/02/10 04:17:05;;;;;;;35.47;12.95;;;;;;;-1.99;100.00;103716.25;5113733;28;20031;-72
2023/02/10 04:19:30;;;;;;;32.97;12.50;;;;;;;-1.95;100.00;103710.19;5113963;28;20164;-73
2023/02/10 04:21:56;;;;;;;30.83;11.77;;;;;;;-1.91;100.00;103714.59;5113679;28;20039;-72
2023/02/10 04:24:21;;;;;;;32.72;11.85;;;;;;;-1.95;100.00;103716.28;5114009;28;20027;-72
2023/02/10 04:26:46;;;;;;;30.25;12.20;;;;;;;-1.98;100.00;103716.25;5113254;28;20035;-72
2023/02/10 04:29:12;;;;;;;33.33;12.73;;;;;;;-1.99;100.00;103713.63;5113093;28;20062;-73
2023/02/10 04:31:37;;;;;;;37.42;12.88;;;;;;;-1.95;100.00;103710.19;5113331;28;20435;-73
2023/02/10 04:34:03;;;;;;;36.88;13.13;;;;;;;-1.91;100.00;103706.75;5113584;28;20032;-72
2023/02/10 04:36:28;;;;;;;29.25;12.45;;;;;;;-1.84;100.00;103703.31;5113843;28;20066;-73
2023/02/10 04:38:53;;;;;;;29.65;12.13;;;;;;;-1.79;100.00;103704.25;5113444;28;20080;-72
2023/02/10 04:41:19;;;;;;;36.08;12.65;;;;;;;-1.80;100.00;103709.44;5113535;28;20082;-72
2023/02/10 04:43:44;;;;;;;28.95;11.57;;;;;;;-1.82;100.00;103708.53;5112248;28;20024;-72
2023/02/10 04:46:09;;;;;;;33.17;12.75;;;;;;;-1.78;100.00;103706.00;5113697;28;20475;-72
2023/02/10 04:48:35;;;;;;;32.05;12.13;;;;;;;-1.70;100.00;103706.03;5115510;28;20126;-72
2023/02/10 04:51:06;;;;;;;40.50;13.43;;;;;;;-1.62;100.00;103706.94;5115995;28;20131;-72
2023/02/10 04:53:32;;;;;;;32.10;11.88;;;;;;;-1.54;100.00;103712.22;5117575;28;20027;-72
2023/02/10 04:55:57;;;;;;;31.55;13.25;;;;;;;-1.49;100.00;103707.06;5117218;28;20389;-71
2023/02/10 04:58:22;;;;;;;32.53;12.98;;;;;;;-1.46;100.00;103715.75;5117830;28;20032;-72
2023/02/10 05:00:49;;;;;;;37.95;12.77;;;;;;;-1.44;100.00;103713.16;5117300;27;20097;-73
2023/02/10 05:03:14;;;;;;;36.88;13.55;;;;;;;-1.42;100.00;103714.94;5117139;28;20110;-73
2023/02/10 05:05:40;;;;;;;35.80;16.02;;;;;;;-1.40;100.00;103711.44;5117387;28;20035;-72
2023/02/10 05:08:05;;;;;;;38.55;16.13;;;;;;;-1.43;100.00;103704.47;5117549;28;20030;-72
2023/02/10 05:10:31;;;;;;;38.10;15.63;;;;;;;-1.47;100.00;103695.72;5115338;28;20035;-72
2023/02/10 05:12:56;;;;;;;45.90;18.10;;;;;;;-1.48;100.00;103687.88;5117967;28;20097;-71
2023/02/10 05:15:21;;;;;;;46.80;17.75;;;;;;;-1.42;100.00;103690.53;5115644;28;20028;-72
2023/02/10 05:17:47;;;;;;;43.25;17.38;;;;;;;-1.41;100.00;103689.66;5115466;28;20038;-72
2023/02/10 05:20:12;;;;;;;47.00;17.95;;;;;;;-1.41;100.00;103697.50;5098704;28;20079;-72
2023/02/10 05:22:39;;;;;;;40.00;16.92;;;;;;;-1.46;100.00;103699.22;5116719;28;20074;-72
2023/02/10 05:25:05;;;;;;;49.53;18.48;;;;;;;-1.54;100.00;103698.28;5116653;28;20073;-72
2023/02/10 05:27:30;;;;;;;44.78;18.50;;;;;;;-1.58;100.00;103699.13;5116690;28;20114;-72
2023/02/10 05:29:56;;;;;;;47.85;19.73;;;;;;;-1.57;100.00;103698.28;5116550;27;20031;-72
2023/02/10 05:32:21;;;;;;;71.45;22.17;;;;;;;-1.49;100.00;103702.69;5117116;28;20036;-72
2023/02/10 05:34:47;;;;;;;75.25;22.80;;;;;;;-1.39;100.00;103698.38;5116849;28;20031;-71
2023/02/10 05:37:12;;;;;;;71.45;23.10;;;;;;;-1.36;100.00;103689.69;5098178;28;20387;-73
2023/02/10 05:39:37;;;;;;;82.40;25.23;;;;;;;-1.37;100.00;103682.72;5116541;28;20031;-72
2023/02/10 05:42:03;;;;;;;73.95;24.75;;;;;;;-1.40;100.00;103678.38;5116847;28;20054;-72
2023/02/10 05:44:29;;;;;;;77.30;25.33;;;;;;;-1.35;100.00;103678.38;5117138;28;20027;-72
2023/02/10 05:46:54;;;;;;;71.50;24.30;;;;;;;-1.30;100.00;103674.03;5116419;28;20039;-72
2023/02/10 05:49:20;;;;;;;70.18;24.02;;;;;;;-1.26;100.00;103671.44;5114915;28;20529;-72
2023/02/10 05:51:46;;;;;;;83.13;25.67;;;;;;;-1.27;100.00;103679.28;5118151;28;20035;-72
2023/02/10 05:54:12;;;;;;;80.57;25.45;;;;;;;-1.27;100.00;103690.63;5116277;28;20147;-72
2023/02/10 05:56:38;;;;;;;76.05;25.10;;;;;;;-1.22;100.00;103697.59;5116432;28;20040;-72
2023/02/10 05:59:04;;;;;;;72.68;23.98;;;;;;;-1.21;100.00;103710.66;5115204;28;20110;-73
2023/02/10 06:01:30;;;;;;;62.95;23.42;;;;;;;-1.19;100.00;103706.34;5115166;28;20141;-72
2023/02/10 06:03:55;;;;;;;72.95;23.48;;;;;;;-1.13;100.00;103708.09;5116131;28;20471;-72
2023/02/10 06:06:21;;;;;;;71.65;24.77;;;;;;;-1.07;100.00;103703.75;5115923;28;20035;-72
2023/02/10 06:08:46;;;;;;;59.95;23.00;;;;;;;-1.00;100.00;103707.28;5116464;28;20024;-72
2023/02/10 06:11:12;;;;;;;69.10;23.88;;;;;;;-0.98;100.00;103704.69;5116551;28;20478;-72
2023/02/10 06:13:37;;;;;;;75.07;24.67;;;;;;;-0.97;100.00;103701.19;5116345;28;20068;-72
2023/02/10 06:16:03;;;;;;;82.72;25.80;;;;;;;-0.98;100.00;103707.28;5115864;28;20071;-72
2023/02/10 06:18:30;;;;;;;69.18;22.75;;;;;;;-1.03;100.00;103709.91;5115754;28;20451;-72
2023/02/10 06:20:56;;;;;;;82.15;23.77;;;;;;;-1.00;100.00;103714.25;5115653;28;20163;-72
2023/02/10 06:23:22;;;;;;;81.75;25.63;;;;;;;-0.91;100.00;103723.00;5115346;28;20056;-72
2023/02/10 06:25:48;;;;;;;57.13;22.15;;;;;;;-0.86;100.00;103736.09;5116129;28;20028;-72
2023/02/10 06:28:14;;;;;;;63.40;22.55;;;;;;;-0.85;100.00;103737.84;5115494;28;20487;-72
2023/02/10 06:30:40;;;;;;;56.75;21.55;;;;;;;-0.86;100.00;103743.06;5115974;28;20066;-72
2023/02/10 06:33:06;;;;;;;51.25;21.15;;;;;;;-0.89;100.00;103743.94;5114012;28;20028;-72
2023/02/10 06:35:31;;;;;;;52.05;20.05;;;;;;;-0.95;100.00;103749.13;5115508;28;20171;-72
2023/02/10 06:37:57;;;;;;;63.53;20.60;;;;;;;-0.97;100.00;103746.50;5115644;28;20027;-73
2023/02/10 06:40:22;;;;;;;56.35;20.70;;;;;;;-0.99;100.00;103744.75;5115276;28;20154;-73
2023/02/10 06:42:48;;;;;;;54.13;21.10;;;;;;;-0.99;100.00;103737.78;5115635;28;20414;-72
2023/02/10 06:45:13;;;;;;;64.38;21.27;;;;;;;-0.98;100.00;103741.28;5114284;28;20036;-72
2023/02/10 06:47:38;;;;;;;58.83;19.95;;;;;;;-1.00;100.00;103728.19;5114693;28;20500;-72
2023/02/10 06:50:04;;;;;;;56.45;20.38;;;;;;;-0.97;100.00;103722.09;5096656;28;20506;-71
2023/02/10 06:52:31;;;;;;;54.63;20.52;;;;;;;-0.96;100.00;103729.06;5115025;28;20416;-72
2023/02/10 06:54:57;;;;;;;55.63;19.58;;;;;;;-0.85;100.00;103730.00;5114549;28;20111;-72
2023/02/10 06:57:22;;;;;;;58.25;19.08;;;;;;;-0.75;100.00;103726.56;5114879;28;20101;-71
2023/02/10 06:59:48;;;;;;;53.88;20.02;;;;;;;-0.68;100.00;103716.97;5114892;27;20035;-71
2023/02/10 07:02:13;;;;;;;59.30;19.83;;;;;;;-0.66;100.00;103711.75;5114683;28;20031;-71
2023/02/10 07:04:39;;;;;;;46.90;18.90;;;;;;;-0.65;100.00;103713.50;5096464;28;20122;-71
2023/02/10 07:07:05;;;;;;;49.97;20.08;;;;;;;-0.61;100.00;103723.06;5114620;28;20388;-72
2023/02/10 07:09:30;;;;;;;54.38;19.80;;;;;;;-0.56;100.00;103723.97;5114882;28;20112;-72
2023/02/10 07:11:57;;;;;;;44.67;17.88;;;;;;;-0.54;100.00;103732.69;5114027;28;20051;-72
2023/02/10 07:14:22;;;;;;;53.88;19.50;;;;;;;-0.52;100.00;103743.16;5114899;28;20039;-72
2023/02/10 07:16:48;;;;;;;44.65;18.63;;;;;;;-0.51;100.00;103742.28;5114501;28;20031;-71
2023/02/10 07:19:13;;;;;;;40.95;17.35;;;;;;;-0.56;100.00;103742.28;5114286;28;20035;-72
2023/02/10 07:21:38;;;;;;;34.80;17.20;;;;;;;-0.58;100.00;103752.75;5114654;28;20372;-72
2023/02/10 07:24:04;;;;;;;48.63;18.17;;;;;;;-0.57;100.00;103754.50;5114432;28;20464;-71
2023/02/10 07:26:30;;;;;;;45.05;18.80;;;;;;;-0.56;100.00;103761.47;5113509;28;20062;-72
2023/02/10 07:28:55;;;;;;;40.83;18.70;;;;;;;-0.55;100.00;103764.97;5114878;27;20511;-73
2023/02/10 07:31:20;;;;;;;45.95;18.88;;;;;;;-0.51;100.00;103760.59;5114278;28;20032;-72
2023/02/10 07:33:46;;;;;;;49.85;20.25;;;;;;;-0.50;100.00;103744.06;5114457;28;20067;-73
2023/02/10 07:36:12;;;;;;;53.58;19.88;;;;;;;-0.50;100.00;103742.31;5095831;28;20345;-72
2023/02/10 07:38:37;;;;;;;55.50;21.63;;;;;;;-0.44;100.00;103747.53;5114146;28;20038;-73
2023/02/10 07:41:04;;;;;;;49.53;20.08;;;;;;;-0.34;100.00;103760.63;5113815;28;20062;-72
2023/02/10 07:43:29;;;;;;;51.08;21.08;;;;;;;-0.25;100.00;103748.47;5113897;28;20036;-72
2023/02/10 07:45:55;;;;;;;50.60;21.27;;;;;;;-0.17;100.00;103758.06;5113414;28;20361;-72
2023/02/10 07:48:21;;;;;;;57.47;21.20;;;;;;;-0.13;100.00;103758.06;5113236;28;20046;-74
2023/02/10 07:50:47;;;;;;;54.83;21.45;;;;;;;-0.08;100.00;103750.22;5113555;28;20034;-73
2023/02/10 07:53:13;;;;;;;52.10;21.55;;;;;;;-0.02;100.00;103765.94;5114118;28;20023;-72
2023/02/10 07:55:39;;;;;;;43.45;20.27;;;;;;;-0.01;100.00;103773.78;5114117;28;20534;-73
2023/02/10 07:58:05;;;;;;;50.67;22.25;;;;;;;-0.01;100.00;103778.16;5113291;28;20032;-74
2023/02/10 08:00:31;;;;;;;54.00;21.35;;;;;;;-0.01;100.00;103786.00;5113433;28;20522;-73
2023/02/10 08:02:57;;;;;;;56.53;21.45;;;;;;;-0.06;100.00;103783.41;5113511;28;20530;-74
2023/02/10 08:05:22;;;;;;;59.75;22.45;;;;;;;-0.06;100.00;103796.47;5113286;28;20081;-73
2023/02/10 08:07:48;;;;;;;52.50;22.55;;;;;;;-0.07;100.00;103789.50;5113427;28;20054;-73
2023/02/10 08:10:14;;;;;;;49.22;22.00;;;;;;;-0.10;100.00;103784.25;5113762;28;20122;-72
2023/02/10 08:12:39;;;;;;;55.97;23.35;;;;;;;-0.12;100.00;103785.13;5113520;28;20044;-75
2023/02/10 08:15:06;;;;;;;49.80;22.52;;;;;;;-0.14;100.00;103784.25;5113348;28;20027;-74
2023/02/10 08:17:32;;;;;;;55.15;24.33;;;;;;;-0.12;100.00;103790.34;5113325;28;20036;-72
2023/02/10 08:19:57;;;;;;;57.10;23.45;;;;;;;-0.11;100.00;103786.88;5113695;28;20080;-73
2023/02/10 08:22:23;;;;;;;62.05;23.92;;;;;;;-0.08;100.00;103782.50;5113507;28;20446;-72
2023/02/10 08:24:48;;;;;;;51.17;23.33;;;;;;;0.02;100.00;103782.53;5117419;28;20031;-73
2023/02/10 08:27:13;;;;;;;62.97;25.23;;;;;;;0.14;100.00;103793.88;5117485;28;20027;-72
2023/02/10 08:29:39;;;;;;;65.03;25.35;;;;;;;0.27;100.00;103792.13;5117287;28;20028;-72
2023/02/10 08:32:04;;;;;;;60.63;25.77;;;;;;;0.40;100.00;103798.22;5117663;28;20071;-72
2023/02/10 08:34:30;;;;;;;59.60;24.35;;;;;;;0.51;100.00;103796.50;5117777;28;20456;-73
2023/02/10 08:36:55;;;;;;;60.03;26.17;;;;;;;0.58;100.00;103793.84;5117297;28;20031;-73
2023/02/10 08:39:21;;;;;;;57.47;24.38;;;;;;;0.62;100.00;103786.00;5117070;28;20036;-73
2023/02/10 08:41:47;;;;;;;67.70;25.88;;;;;;;0.70;100.00;103783.34;5117048;28;20078;-73
2023/02/10 08:44:13;;;;;;;57.50;25.00;;;;;;;0.78;100.00;103783.34;5117244;28;20031;-70
2023/02/10 08:46:38;;;;;;;51.83;24.80;;;;;;;0.86;100.00;103781.56;5116400;28;20160;-73
2023/02/10 08:49:04;;;;;;;62.92;24.95;;;;;;;0.96;100.00;103791.16;5116081;28;20107;-73
2023/02/10 08:51:32;;;;;;;52.28;24.75;;;;;;;1.04;100.00;103788.50;5117016;28;20398;-73
2023/02/10 08:54:00;;;;;;;51.63;24.35;;;;;;;1.13;100.00;103783.22;5117060;28;20028;-74
2023/02/10 08:56:26;;;;;;;48.65;22.58;;;;;;;1.22;100.00;103777.09;5117021;28;20111;-73
2023/02/10 08:58:51;;;;;;;48.40;24.02;;;;;;;1.29;100.00;103785.81;5117217;28;20055;-73
2023/02/10 09:01:20;;;;;;;50.88;23.20;;;;;;;1.38;100.00;103791.88;5117258;28;20359;-73
2023/02/10 09:03:46;;;;;;;44.15;23.08;;;;;;;1.48;100.00;103797.06;5116829;28;20106;-73
2023/02/10 09:06:18;;;;;;;47.85;22.58;;;;;;;1.53;100.00;103795.31;5116747;28;20031;-74
2023/02/10 09:08:45;;;;;;;;;;;;;;;1.59;100.00;103797.91;5117805;28;20118;-74
2023/02/10 09:11:10;;;;;;;39.38;20.23;;;;;;;1.67;100.00;103804.00;5117041;28;20259;-74
2023/02/10 09:13:35;;;;;;;46.67;21.55;;;;;;;1.75;100.00;103802.19;5116732;28;20111;-74
2023/02/10 09:16:01;;;;;;;37.33;19.42;;;;;;;1.93;100.00;103801.19;5116725;28;20034;-74
2023/02/10 09:18:26;;;;;;;45.38;20.80;;;;;;;1.98;100.00;103803.78;5116744;28;20436;-74
2023/02/10 09:20:52;;;;;;;39.60;20.10;;;;;;;1.99;100.00;103812.56;5116943;28;20111;-73
2023/02/10 09:23:17;;;;;;;36.25;18.98;;;;;;;2.01;100.00;103821.28;5116491;28;20035;-74
2023/02/10 09:25:42;;;;;;;34.67;19.15;;;;;;;2.02;100.00;103815.16;5116679;28;20027;-73
2023/02/10 09:28:08;;;;;;;41.50;19.00;;;;;;;2.10;100.00;103802.81;5116729;28;20537;-72
2023/02/10 09:30:34;;;;;;;39.35;16.90;;;;;;;2.33;100.00;103804.41;5114915;28;20031;-73
2023/02/10 09:32:59;;;;;;;33.72;18.20;;;;;;;2.40;100.00;103796.44;5116307;28;20110;-73
2023/02/10 09:35:24;;;;;;;28.67;16.45;;;;;;;2.64;100.00;103800.63;5115945;28;20027;-72
2023/02/10 09:37:50;;;;;;;23.83;13.40;;;;;;;2.86;100.00;103808.28;5116308;28;20460;-74
2023/02/10 09:40:31;;;;;;;27.38;14.27;;;;;;;2.88;100.00;103803.91;5116288;28;20387;-73
2023/02/10 09:43:00;;;;;;;;;;;;;;;2.90;100.00;103809.13;5116635;28;20054;-74
2023/02/10 09:45:29;;;;;;;23.13;14.77;;;;;;;2.93;100.00;103804.69;5116659;27;19907;-74
2023/02/10 09:48:08;;;;;;;26.10;14.90;;;;;;;3.25;100.00;103789.44;5116204;28;20031;-76
2023/02/10 09:50:49;;;;;;;21.83;13.80;;;;;;;3.61;100.00;103793.31;5116497;28;20232;-76
2023/02/10 09:53:21;;;;;;;22.42;12.57;;;;;;;3.85;100.00;103799.13;5115481;28;20038;-74
2023/02/10 09:55:54;;;;;;;21.02;14.23;;;;;;;3.87;100.00;103792.09;5115875;28;20112;-74
2023/02/10 09:58:34;;;;;;;25.08;15.65;;;;;;;4.87;100.00;103798.28;5116307;28;20027;-74
2023/02/10 10:01:21;;;;;;;20.48;12.25;;;;;;;5.27;100.00;103799.28;5116238;28;20027;-72
2023/02/10 10:03:56;;;;;;;20.58;12.27;;;;;;;5.79;100.00;103803.41;5116180;28;20092;-74
2023/02/10 10:06:31;;;;;;;22.67;12.13;;;;;;;6.32;100.00;103791.59;5116159;28;20032;-75
2023/02/10 10:09:08;;;;;;;20.20;11.70;;;;;;;7.18;100.00;103783.06;5117883;27;20467;-73
2023/02/10 10:11:36;;;;;;;17.15;11.73;;;;;;;7.84;100.00;103783.72;5116652;28;20051;-74
2023/02/10 10:14:03;;;;;;;18.80;11.55;;;;;;;8.45;100.00;103791.44;5115824;27;20039;-72
2023/02/10 10:16:55;;;;;;;17.90;11.05;;;;;;;8.88;100.00;103783.72;5114694;28;20035;-75
2023/02/10 10:19:23;;;;;;;;;;;;;;;9.43;100.00;103780.78;5077731;28;20051;-74
2023/02/10 10:22:03;;;;;;;17.08;10.35;;;;;;;9.84;100.00;103780.94;5115092;28;19972;-74
2023/02/10 10:24:31;;;;;;;18.00;9.50;;;;;;;10.27;100.00;103772.09;5115852;28;20019;-74
2023/02/10 10:27:17;;;;;;;14.48;9.25;;;;;;;10.31;100.00;103773.69;5115564;28;20058;-75
2023/02/10 10:29:52;;;;;;;16.67;9.68;;;;;;;10.92;100.00;103764.84;5115302;28;20055;-74
2023/02/10 10:32:25;;;;;;;15.80;9.18;;;;;;;10.67;98.06;103760.59;5115250;28;20047;-74
2023/02/10 10:34:52;;;;;;;19.63;8.95;;;;;;;11.78;87.95;103766.09;5113843;28;20054;-75
2023/02/10 10:37:24;;;;;;;13.07;8.57;;;;;;;11.76;91.11;103759.09;5114864;28;20024;-78
2023/02/10 10:39:52;;;;;;;;;;;;;;;11.90;78.49;103766.44;5115394;28;20476;-77
2023/02/10 10:42:27;;;;;;;14.02;8.50;;;;;;;11.51;78.97;103760.31;5115131;28;19912;-76
2023/02/10 10:44:59;;;;;;;19.85;7.85;;;;;;;11.73;78.72;103764.59;5114395;28;20365;-79
2023/02/10 10:48:15;;;;;;;15.45;9.20;;;;;;;10.75;92.87;103768.28;5114872;28;20034;-77
2023/02/10 10:50:41;;;;;;;13.95;7.57;;;;;;;10.87;90.10;103766.84;5051904;28;20540;-79
2023/02/10 10:53:22;;;;;;;16.05;8.00;;;;;;;10.74;88.80;103761.22;5035151;28;20067;-78
2023/02/10 10:55:50;;;;;;;13.18;8.43;;;;;;;10.61;85.96;103760.03;5086677;28;20123;-78
2023/02/10 10:58:30;;;;;;;12.75;8.30;;;;;;;10.80;92.43;103762.75;5114713;28;20024;-76
2023/02/10 11:00:59;;;;;;;20.40;8.20;;;;;;;11.57;80.50;103760.00;5115258;28;20031;-75
2023/02/10 11:03:24;;;;;;;18.80;8.57;;;;;;;10.34;83.90;103747.84;5097013;28;20418;-74
2023/02/10 11:06:11;;;;;;;15.90;8.85;;;;;;;9.21;99.16;103758.63;5115063;28;20053;-78
2023/02/10 11:09:00;;;;;;;17.48;9.07;;;;;;;8.09;100.00;103767.88;5113877;28;20470;-77
2023/02/10 11:11:39;;;;;;;21.08;9.00;;;;;;;8.35;100.00;103762.59;5115705;28;20090;-76